QFA46 WADD-YMML
Flight info
| Callsign | QFA46 |
|---|---|
| Flight time | N/A |
| Altitude | 33000 |
| Route | ATMAP A576 CIN/N0462F350 T29 VIRUV/N0454F370 T21 LEC H119 ARBEY |
| Aircraft | B738/M-SDE2E3FGHIRWXY/LB1 |
Departure
| Time | 2026-04-28 22:36 |
|---|---|
| Airport | Denpasar I Gusti Ngurah Rai International Airport (WADD) |
Arrival
| Time | N/A |
|---|---|
| Airport | Melbourne Airport (YMML) |
| Time | Latitude | Longitude | Altitude | Speed | Heading |
|---|---|---|---|---|---|
| 2026-04-28 22:26 | -8.74557 | 115.16541 | 32 ft | 0 kts | 358° |
| 2026-04-28 22:27 | -8.74567 | 115.16541 | 32 ft | 4 kts | 358° |
| 2026-04-28 22:27 | -8.74593 | 115.16542 | 32 ft | 2 kts | 358° |
| 2026-04-28 22:28 | -8.74616 | 115.16543 | 30 ft | 4 kts | 358° |
| 2026-04-28 22:28 | -8.74641 | 115.16544 | 31 ft | 4 kts | 356° |
| 2026-04-28 22:28 | -8.74666 | 115.16550 | 28 ft | 4 kts | 324° |
| 2026-04-28 22:28 | -8.74682 | 115.16570 | 29 ft | 4 kts | 286° |
| 2026-04-28 22:29 | -8.74685 | 115.16596 | 29 ft | 3 kts | 268° |
| 2026-04-28 22:29 | -8.74685 | 115.16599 | 29 ft | 1 kts | 267° |
| 2026-04-28 22:32 | -8.74685 | 115.16585 | 30 ft | 6 kts | 268° |
| 2026-04-28 22:32 | -8.74688 | 115.16520 | 31 ft | 13 kts | 267° |
| 2026-04-28 22:32 | -8.74692 | 115.16408 | 32 ft | 18 kts | 268° |
| 2026-04-28 22:32 | -8.74697 | 115.16280 | 32 ft | 18 kts | 268° |
| 2026-04-28 22:33 | -8.74702 | 115.16154 | 32 ft | 18 kts | 267° |
| 2026-04-28 22:33 | -8.74707 | 115.16033 | 32 ft | 17 kts | 268° |
| 2026-04-28 22:33 | -8.74712 | 115.15906 | 32 ft | 20 kts | 268° |
| 2026-04-28 22:33 | -8.74718 | 115.15765 | 32 ft | 20 kts | 268° |
| 2026-04-28 22:34 | -8.74724 | 115.15629 | 31 ft | 19 kts | 268° |
| 2026-04-28 22:34 | -8.74729 | 115.15497 | 31 ft | 18 kts | 267° |
| 2026-04-28 22:34 | -8.74757 | 115.15402 | 31 ft | 13 kts | 214° |
| 2026-04-28 22:34 | -8.74846 | 115.15393 | 28 ft | 13 kts | 177° |
| 2026-04-28 22:35 | -8.74897 | 115.15424 | 28 ft | 8 kts | 90° |
| 2026-04-28 22:35 | -8.74897 | 115.15428 | 28 ft | 1 kts | 88° |
| 2026-04-28 22:35 | -8.74890 | 115.15590 | 28 ft | 57 kts | 87° |
| 2026-04-28 22:35 | -8.74864 | 115.16224 | 27 ft | 122 kts | 88° |
| 2026-04-28 22:36 | -8.74826 | 115.17274 | 39 ft | 174 kts | 88° |
| 2026-04-28 22:36 | -8.74782 | 115.18536 | 627 ft | 183 kts | 89° |
| 2026-04-28 22:36 | -8.74735 | 115.19834 | 1389 ft | 186 kts | 88° |
| 2026-04-28 22:36 | -8.74675 | 115.21224 | 1727 ft | 210 kts | 88° |
| 2026-04-28 22:37 | -8.74607 | 115.22778 | 1915 ft | 231 kts | 88° |
| 2026-04-28 22:37 | -8.74534 | 115.24444 | 2241 ft | 245 kts | 88° |
| 2026-04-28 22:37 | -8.74457 | 115.26236 | 2533 ft | 262 kts | 88° |
| 2026-04-28 22:37 | -8.74377 | 115.28084 | 3271 ft | 262 kts | 88° |
| 2026-04-28 22:38 | -8.74298 | 115.29929 | 4034 ft | 264 kts | 88° |
| 2026-04-28 22:38 | -8.74219 | 115.31769 | 4732 ft | 267 kts | 88° |
| 2026-04-28 22:38 | -8.74138 | 115.33653 | 5429 ft | 270 kts | 88° |
| 2026-04-28 22:38 | -8.74056 | 115.35556 | 6120 ft | 272 kts | 88° |
| 2026-04-28 22:39 | -8.73974 | 115.37477 | 6766 ft | 275 kts | 88° |
| 2026-04-28 22:39 | -8.73891 | 115.39422 | 7408 ft | 278 kts | 88° |
| 2026-04-28 22:39 | -8.73808 | 115.41380 | 8051 ft | 280 kts | 88° |
| 2026-04-28 22:39 | -8.73724 | 115.43354 | 8690 ft | 283 kts | 88° |
| 2026-04-28 22:40 | -8.73829 | 115.45341 | 9295 ft | 286 kts | 105° |
| 2026-04-28 22:40 | -8.74617 | 115.47186 | 9932 ft | 288 kts | 121° |
| 2026-04-28 22:40 | -8.75901 | 115.48798 | 10248 ft | 304 kts | 135° |
| 2026-04-28 22:40 | -8.77554 | 115.50234 | 10383 ft | 324 kts | 146° |
| 2026-04-28 22:41 | -8.79723 | 115.51035 | 10501 ft | 345 kts | 172° |
| 2026-04-28 22:41 | -8.82178 | 115.51086 | 10720 ft | 360 kts | 181° |
| 2026-04-28 22:41 | -8.84698 | 115.50934 | 10859 ft | 363 kts | 182° |
| 2026-04-28 22:41 | -8.87230 | 115.50809 | 10864 ft | 364 kts | 180° |
| 2026-04-28 22:42 | -8.89767 | 115.50740 | 10870 ft | 364 kts | 179° |
| 2026-04-28 22:42 | -8.92303 | 115.50698 | 10876 ft | 364 kts | 179° |
| 2026-04-28 22:42 | -8.94830 | 115.50659 | 10874 ft | 364 kts | 179° |
| 2026-04-28 22:42 | -8.97336 | 115.50619 | 10884 ft | 364 kts | 179° |
| 2026-04-28 22:43 | -8.99870 | 115.50578 | 10880 ft | 364 kts | 179° |
| 2026-04-28 22:43 | -9.02403 | 115.50536 | 10884 ft | 364 kts | 179° |
| 2026-04-28 22:43 | -9.04937 | 115.50494 | 10884 ft | 364 kts | 179° |
| 2026-04-28 22:43 | -9.07473 | 115.50452 | 10916 ft | 368 kts | 179° |
| 2026-04-28 22:44 | -9.10046 | 115.50410 | 11388 ft | 370 kts | 179° |
| 2026-04-28 22:44 | -9.12626 | 115.50366 | 11988 ft | 371 kts | 179° |
| 2026-04-28 22:44 | -9.15215 | 115.50323 | 12492 ft | 374 kts | 179° |
| 2026-04-28 22:44 | -9.17831 | 115.50279 | 12981 ft | 377 kts | 179° |
| 2026-04-28 22:45 | -9.20475 | 115.50235 | 13470 ft | 381 kts | 179° |
| 2026-04-28 22:45 | -9.23133 | 115.50191 | 13928 ft | 384 kts | 179° |
| 2026-04-28 22:45 | -9.25808 | 115.50146 | 14356 ft | 387 kts | 179° |
| 2026-04-28 22:45 | -9.28516 | 115.50100 | 14790 ft | 389 kts | 179° |
| 2026-04-28 22:46 | -9.31196 | 115.50055 | 15211 ft | 392 kts | 179° |
| 2026-04-28 22:46 | -9.33930 | 115.50009 | 15657 ft | 394 kts | 179° |
| 2026-04-28 22:46 | -9.36685 | 115.49963 | 15862 ft | 395 kts | 179° |
| 2026-04-28 22:46 | -9.39432 | 115.49916 | 15893 ft | 396 kts | 179° |
| 2026-04-28 22:47 | -9.42194 | 115.49870 | 15894 ft | 398 kts | 179° |
| 2026-04-28 22:47 | -9.44966 | 115.49823 | 15891 ft | 397 kts | 179° |
| 2026-04-28 22:47 | -9.47728 | 115.49777 | 15896 ft | 397 kts | 179° |
| 2026-04-28 22:47 | -9.50490 | 115.49762 | 15885 ft | 396 kts | 174° |
| 2026-04-28 22:48 | -9.53134 | 115.50421 | 15901 ft | 390 kts | 153° |
| 2026-04-28 22:48 | -9.55403 | 115.51911 | 15972 ft | 391 kts | 136° |
| 2026-04-28 22:48 | -9.57154 | 115.54006 | 16415 ft | 389 kts | 122° |
| 2026-04-28 22:48 | -9.58632 | 115.56302 | 16895 ft | 389 kts | 121° |
| 2026-04-28 22:49 | -9.59587 | 115.57848 | 17184 ft | 391 kts | 120° |
| 2026-04-28 22:49 | -9.61023 | 115.60197 | 17583 ft | 394 kts | 120° |
| 2026-04-28 22:49 | -9.62477 | 115.62569 | 17983 ft | 396 kts | 120° |
| 2026-04-28 22:49 | -9.63946 | 115.64943 | 18354 ft | 399 kts | 121° |
| 2026-04-28 22:50 | -9.65430 | 115.67322 | 18713 ft | 401 kts | 121° |
| 2026-04-28 22:50 | -9.66928 | 115.69711 | 19061 ft | 403 kts | 121° |
| 2026-04-28 22:50 | -9.68438 | 115.72111 | 19383 ft | 405 kts | 121° |
| 2026-04-28 22:50 | -9.69962 | 115.74530 | 19719 ft | 407 kts | 121° |
| 2026-04-28 22:51 | -9.71492 | 115.76958 | 20044 ft | 410 kts | 121° |
| 2026-04-28 22:51 | -9.73028 | 115.79396 | 20359 ft | 412 kts | 122° |
| 2026-04-28 22:51 | -9.74576 | 115.81853 | 20677 ft | 414 kts | 121° |
| 2026-04-28 22:51 | -9.76131 | 115.84323 | 20978 ft | 417 kts | 122° |
| 2026-04-28 22:52 | -9.77677 | 115.86779 | 21284 ft | 419 kts | 122° |
| 2026-04-28 22:52 | -9.79251 | 115.89280 | 21573 ft | 422 kts | 122° |
| 2026-04-28 22:52 | -9.80836 | 115.91799 | 21863 ft | 424 kts | 122° |
| 2026-04-28 22:52 | -9.82426 | 115.94327 | 22152 ft | 427 kts | 122° |
| 2026-04-28 22:53 | -9.84026 | 115.96872 | 22426 ft | 429 kts | 122° |
| 2026-04-28 22:53 | -9.85638 | 115.99434 | 22703 ft | 432 kts | 122° |
| 2026-04-28 22:53 | -9.87256 | 116.02008 | 22966 ft | 434 kts | 122° |
| 2026-04-28 22:53 | -9.88886 | 116.04599 | 23231 ft | 437 kts | 122° |
| 2026-04-28 22:54 | -9.90522 | 116.07201 | 23476 ft | 439 kts | 122° |
| 2026-04-28 22:54 | -9.92169 | 116.09822 | 23704 ft | 441 kts | 122° |
| 2026-04-28 22:54 | -9.93819 | 116.12448 | 23940 ft | 442 kts | 122° |
| 2026-04-28 22:54 | -9.95473 | 116.15081 | 24182 ft | 443 kts | 122° |
| 2026-04-28 22:55 | -9.97129 | 116.17719 | 24408 ft | 444 kts | 122° |
| 2026-04-28 22:55 | -9.98794 | 116.20372 | 24636 ft | 446 kts | 122° |
| 2026-04-28 22:55 | -10.00465 | 116.23035 | 24848 ft | 447 kts | 122° |
| 2026-04-28 22:55 | -10.02140 | 116.25703 | 25075 ft | 449 kts | 122° |
| 2026-04-28 22:56 | -10.03795 | 116.28343 | 25288 ft | 450 kts | 122° |
| 2026-04-28 22:56 | -10.05480 | 116.31029 | 25495 ft | 451 kts | 122° |
| 2026-04-28 22:56 | -10.07166 | 116.33719 | 25709 ft | 453 kts | 122° |
| 2026-04-28 22:56 | -10.08860 | 116.36422 | 25918 ft | 454 kts | 122° |
| 2026-04-28 22:57 | -10.10560 | 116.39135 | 26120 ft | 455 kts | 122° |
| 2026-04-28 22:57 | -10.12259 | 116.41847 | 26320 ft | 457 kts | 122° |
| 2026-04-28 22:57 | -10.13966 | 116.44572 | 26512 ft | 458 kts | 122° |
| 2026-04-28 22:57 | -10.15683 | 116.47309 | 26710 ft | 459 kts | 123° |
| 2026-04-28 22:58 | -10.17688 | 116.49828 | 26851 ft | 461 kts | 135° |
| 2026-04-28 22:58 | -10.20022 | 116.52081 | 27067 ft | 462 kts | 137° |
| 2026-04-28 22:58 | -10.22393 | 116.54292 | 27251 ft | 463 kts | 137° |
| 2026-04-28 22:58 | -10.24776 | 116.56499 | 27410 ft | 465 kts | 137° |
| 2026-04-28 22:59 | -10.27135 | 116.58696 | 27588 ft | 466 kts | 137° |
| 2026-04-28 22:59 | -10.29519 | 116.60937 | 27765 ft | 467 kts | 137° |
| 2026-04-28 22:59 | -10.31898 | 116.63192 | 27945 ft | 468 kts | 136° |
| 2026-04-28 22:59 | -10.34277 | 116.65461 | 28112 ft | 469 kts | 136° |
| 2026-04-28 23:00 | -10.36655 | 116.67737 | 28267 ft | 471 kts | 136° |
| 2026-04-28 23:00 | -10.39040 | 116.70023 | 28422 ft | 472 kts | 136° |
| 2026-04-28 23:00 | -10.41432 | 116.72318 | 28574 ft | 473 kts | 136° |
| 2026-04-28 23:00 | -10.43828 | 116.74617 | 28718 ft | 475 kts | 136° |
| 2026-04-28 23:01 | -10.46227 | 116.76919 | 28899 ft | 475 kts | 136° |
| 2026-04-28 23:01 | -10.48630 | 116.79224 | 29141 ft | 474 kts | 136° |
| 2026-04-28 23:01 | -10.51025 | 116.81522 | 29404 ft | 473 kts | 136° |
| 2026-04-28 23:01 | -10.53418 | 116.83818 | 29637 ft | 472 kts | 136° |
| 2026-04-28 23:02 | -10.55808 | 116.86111 | 29822 ft | 473 kts | 136° |
| 2026-04-28 23:02 | -10.58204 | 116.88412 | 29986 ft | 474 kts | 136° |
| 2026-04-28 23:02 | -10.60575 | 116.90688 | 30153 ft | 474 kts | 136° |
| 2026-04-28 23:02 | -10.62982 | 116.92999 | 30351 ft | 473 kts | 136° |
| 2026-04-28 23:03 | -10.65373 | 116.95296 | 30533 ft | 473 kts | 136° |
| 2026-04-28 23:03 | -10.67768 | 116.97598 | 30682 ft | 474 kts | 136° |
| 2026-04-28 23:03 | -10.70169 | 116.99904 | 30825 ft | 475 kts | 136° |
| 2026-04-28 23:03 | -10.72574 | 117.02216 | 30995 ft | 475 kts | 136° |
| 2026-04-28 23:04 | -10.74948 | 117.04499 | 31175 ft | 475 kts | 136° |
| 2026-04-28 23:04 | -10.79755 | 117.09122 | 31499 ft | 476 kts | 136° |
| 2026-04-28 23:04 | -10.82163 | 117.11438 | 31669 ft | 476 kts | 136° |
| 2026-04-28 23:05 | -10.84573 | 117.13757 | 31858 ft | 476 kts | 136° |
| 2026-04-28 23:05 | -10.86982 | 117.16076 | 32062 ft | 476 kts | 136° |
| 2026-04-28 23:05 | -10.89392 | 117.18396 | 32221 ft | 476 kts | 136° |
| 2026-04-28 23:05 | -10.91801 | 117.20716 | 32391 ft | 476 kts | 136° |
| 2026-04-28 23:06 | -10.94203 | 117.23030 | 32566 ft | 476 kts | 136° |
| 2026-04-28 23:06 | -10.96614 | 117.25353 | 32755 ft | 476 kts | 136° |
| 2026-04-28 23:06 | -10.99012 | 117.27664 | 32912 ft | 474 kts | 137° |
| 2026-04-28 23:06 | -11.01413 | 117.29978 | 32902 ft | 476 kts | 137° |
| 2026-04-28 23:07 | -11.06204 | 117.34598 | 32917 ft | 479 kts | 137° |
| 2026-04-28 23:07 | -11.11049 | 117.39272 | 32920 ft | 479 kts | 137° |
| 2026-04-28 23:08 | -11.15901 | 117.43955 | 32921 ft | 480 kts | 137° |
| 2026-04-28 23:08 | -11.20754 | 117.48640 | 32924 ft | 481 kts | 137° |
| 2026-04-28 23:09 | -11.25608 | 117.53330 | 32918 ft | 481 kts | 137° |
| 2026-04-28 23:09 | -11.30432 | 117.57993 | 32922 ft | 481 kts | 137° |
| 2026-04-28 23:10 | -11.35289 | 117.62691 | 32922 ft | 481 kts | 137° |
| 2026-04-28 23:10 | -11.40143 | 117.67386 | 32922 ft | 481 kts | 137° |
| 2026-04-28 23:11 | -11.44995 | 117.72083 | 32925 ft | 480 kts | 137° |
| 2026-04-28 23:11 | -11.49852 | 117.76786 | 32923 ft | 480 kts | 137° |
| 2026-04-28 23:12 | -11.54661 | 117.81447 | 32925 ft | 480 kts | 137° |
| 2026-04-28 23:12 | -11.59508 | 117.86146 | 32928 ft | 480 kts | 137° |
| 2026-04-28 23:13 | -11.64348 | 117.90840 | 32928 ft | 480 kts | 137° |
| 2026-04-28 23:13 | -11.69191 | 117.95540 | 32928 ft | 480 kts | 137° |
| 2026-04-28 23:14 | -11.74031 | 118.00239 | 32930 ft | 481 kts | 137° |
| 2026-04-28 23:14 | -11.78883 | 118.04953 | 32929 ft | 481 kts | 137° |
| 2026-04-28 23:15 | -11.83704 | 118.09639 | 32928 ft | 481 kts | 137° |
| 2026-04-28 23:15 | -11.88553 | 118.14355 | 32935 ft | 481 kts | 137° |
| 2026-04-28 23:16 | -11.93397 | 118.19069 | 32932 ft | 481 kts | 137° |
| 2026-04-28 23:16 | -11.98249 | 118.23792 | 32934 ft | 481 kts | 137° |
| 2026-04-28 23:17 | -12.03101 | 118.28506 | 32932 ft | 481 kts | 137° |
| 2026-04-28 23:17 | -12.07967 | 118.33206 | 32931 ft | 481 kts | 137° |
| 2026-04-28 23:18 | -12.12835 | 118.37909 | 32933 ft | 481 kts | 137° |
| 2026-04-28 23:18 | -12.17705 | 118.42621 | 32937 ft | 482 kts | 137° |
| 2026-04-28 23:19 | -12.22572 | 118.47335 | 32939 ft | 482 kts | 137° |
| 2026-04-28 23:19 | -12.27403 | 118.52017 | 32938 ft | 482 kts | 137° |
| 2026-04-28 23:20 | -12.32271 | 118.56738 | 32934 ft | 482 kts | 137° |
| 2026-04-28 23:20 | -12.37143 | 118.61465 | 32939 ft | 482 kts | 137° |
| 2026-04-28 23:21 | -12.42008 | 118.66188 | 32940 ft | 482 kts | 137° |
| 2026-04-28 23:21 | -12.46881 | 118.70921 | 32939 ft | 483 kts | 137° |
| 2026-04-28 23:22 | -12.51765 | 118.75667 | 32944 ft | 484 kts | 137° |
| 2026-04-28 23:22 | -12.56623 | 118.80391 | 32946 ft | 485 kts | 137° |
| 2026-04-28 23:23 | -12.61535 | 118.85169 | 32940 ft | 487 kts | 137° |
| 2026-04-28 23:23 | -12.66454 | 118.89957 | 32943 ft | 488 kts | 137° |
| 2026-04-28 23:24 | -12.71383 | 118.94758 | 32943 ft | 489 kts | 137° |
| 2026-04-28 23:24 | -12.76317 | 118.99566 | 32945 ft | 490 kts | 137° |
| 2026-04-28 23:25 | -12.81226 | 119.04353 | 32945 ft | 490 kts | 137° |
| 2026-04-28 23:25 | -12.86171 | 119.09177 | 32947 ft | 491 kts | 137° |
| 2026-04-28 23:26 | -12.91117 | 119.14006 | 32947 ft | 491 kts | 137° |
| 2026-04-28 23:26 | -12.96062 | 119.18836 | 32949 ft | 490 kts | 137° |
| 2026-04-28 23:27 | -13.00996 | 119.23658 | 32952 ft | 490 kts | 138° |
| 2026-04-28 23:27 | -13.05930 | 119.28482 | 32950 ft | 489 kts | 138° |
| 2026-04-28 23:28 | -13.10855 | 119.33302 | 32951 ft | 489 kts | 138° |
| 2026-04-28 23:28 | -13.15778 | 119.38121 | 32951 ft | 489 kts | 138° |
| 2026-04-28 23:29 | -13.20667 | 119.42911 | 32955 ft | 489 kts | 138° |
| 2026-04-28 23:29 | -13.25589 | 119.47734 | 32954 ft | 489 kts | 138° |
| 2026-04-28 23:30 | -13.30512 | 119.52563 | 32957 ft | 489 kts | 138° |
| 2026-04-28 23:30 | -13.35433 | 119.57392 | 32956 ft | 489 kts | 138° |
| 2026-04-28 23:31 | -13.40352 | 119.62222 | 32958 ft | 489 kts | 138° |
| 2026-04-28 23:31 | -13.45278 | 119.67061 | 32961 ft | 490 kts | 138° |
| 2026-04-28 23:32 | -13.50174 | 119.71873 | 32960 ft | 490 kts | 138° |
| 2026-04-28 23:32 | -13.55103 | 119.76722 | 32958 ft | 490 kts | 138° |
| 2026-04-28 23:33 | -13.60032 | 119.81574 | 32963 ft | 491 kts | 138° |
| 2026-04-28 23:33 | -13.64963 | 119.86430 | 32965 ft | 491 kts | 138° |
| 2026-04-28 23:34 | -13.69900 | 119.91295 | 32964 ft | 491 kts | 138° |
| 2026-04-28 23:34 | -13.74836 | 119.96162 | 32964 ft | 491 kts | 138° |
| 2026-04-28 23:35 | -13.79735 | 120.00996 | 32965 ft | 491 kts | 138° |
| 2026-04-28 23:35 | -13.84674 | 120.05872 | 32968 ft | 492 kts | 138° |
| 2026-04-28 23:36 | -13.88806 | 120.09953 | 32969 ft | 492 kts | 138° |
| 2026-04-28 23:36 | -13.94545 | 120.15626 | 32968 ft | 492 kts | 138° |
| 2026-04-28 23:37 | -13.98648 | 120.19684 | 32968 ft | 492 kts | 138° |
| 2026-04-28 23:37 | -14.03586 | 120.24571 | 32970 ft | 492 kts | 138° |
| 2026-04-28 23:38 | -14.08529 | 120.29466 | 32974 ft | 493 kts | 138° |
| 2026-04-28 23:38 | -14.13473 | 120.34364 | 32975 ft | 493 kts | 138° |
| 2026-04-28 23:39 | -14.18417 | 120.39267 | 32975 ft | 493 kts | 138° |
| 2026-04-28 23:39 | -14.23363 | 120.44174 | 32972 ft | 493 kts | 138° |
| 2026-04-28 23:40 | -14.28308 | 120.49082 | 32975 ft | 494 kts | 138° |
| 2026-04-28 23:40 | -14.33227 | 120.53970 | 32978 ft | 494 kts | 138° |
| 2026-04-28 23:41 | -14.38210 | 120.58922 | 32975 ft | 494 kts | 138° |
| 2026-04-28 23:41 | -14.43130 | 120.63817 | 32975 ft | 494 kts | 138° |
| 2026-04-28 23:42 | -14.48082 | 120.68745 | 32977 ft | 495 kts | 138° |
| 2026-04-28 23:42 | -14.53039 | 120.73682 | 32983 ft | 495 kts | 138° |
| 2026-04-28 23:43 | -14.57992 | 120.78619 | 32979 ft | 495 kts | 138° |
| 2026-04-28 23:43 | -14.62952 | 120.83565 | 32982 ft | 495 kts | 138° |
| 2026-04-28 23:44 | -14.67914 | 120.88517 | 32984 ft | 495 kts | 138° |
| 2026-04-28 23:44 | -14.72840 | 120.93437 | 32984 ft | 496 kts | 138° |
| 2026-04-28 23:45 | -14.77798 | 120.98391 | 32986 ft | 496 kts | 138° |
| 2026-04-28 23:45 | -14.82767 | 121.03360 | 32987 ft | 496 kts | 138° |
| 2026-04-28 23:46 | -14.87726 | 121.08323 | 32986 ft | 496 kts | 138° |
| 2026-04-28 23:46 | -14.92686 | 121.13288 | 32984 ft | 496 kts | 138° |
| 2026-04-28 23:47 | -14.97655 | 121.18267 | 32987 ft | 497 kts | 138° |
| 2026-04-28 23:47 | -15.02614 | 121.23239 | 32988 ft | 497 kts | 138° |
| 2026-04-28 23:48 | -15.07582 | 121.28225 | 32987 ft | 497 kts | 139° |
| 2026-04-28 23:48 | -15.12546 | 121.33209 | 32990 ft | 497 kts | 139° |
| 2026-04-28 23:49 | -15.17479 | 121.38165 | 32988 ft | 497 kts | 139° |
| 2026-04-28 23:49 | -15.22453 | 121.43166 | 32993 ft | 497 kts | 139° |
| 2026-04-28 23:50 | -15.27415 | 121.48159 | 32995 ft | 497 kts | 139° |
| 2026-04-28 23:50 | -15.32378 | 121.53155 | 32995 ft | 497 kts | 139° |
| 2026-04-28 23:51 | -15.37342 | 121.58156 | 32997 ft | 497 kts | 139° |
| 2026-04-28 23:51 | -15.42300 | 121.63156 | 33001 ft | 497 kts | 139° |
| 2026-04-28 23:52 | -15.47234 | 121.68134 | 32997 ft | 497 kts | 139° |
| 2026-04-28 23:52 | -15.52194 | 121.73142 | 32999 ft | 497 kts | 139° |
| 2026-04-28 23:53 | -15.57152 | 121.78151 | 32996 ft | 497 kts | 139° |
| 2026-04-28 23:53 | -15.62108 | 121.83162 | 33002 ft | 497 kts | 139° |
| 2026-04-28 23:54 | -15.67029 | 121.88141 | 33002 ft | 497 kts | 139° |
| 2026-04-28 23:54 | -15.71986 | 121.93160 | 33002 ft | 497 kts | 139° |
| 2026-04-28 23:55 | -15.76936 | 121.98176 | 33003 ft | 497 kts | 139° |
| 2026-04-28 23:55 | -15.81891 | 122.03200 | 33003 ft | 498 kts | 139° |
| 2026-04-28 23:56 | -15.86843 | 122.08225 | 33002 ft | 498 kts | 139° |
| 2026-04-28 23:56 | -15.91794 | 122.13252 | 33005 ft | 498 kts | 139° |
| 2026-04-28 23:57 | -15.96749 | 122.18287 | 33006 ft | 498 kts | 139° |
| 2026-04-28 23:57 | -16.01702 | 122.23324 | 33005 ft | 498 kts | 139° |
| 2026-04-28 23:58 | -16.06621 | 122.28331 | 33006 ft | 498 kts | 139° |
| 2026-04-28 23:58 | -16.11576 | 122.33376 | 33005 ft | 498 kts | 139° |
| 2026-04-28 23:59 | -16.16526 | 122.38422 | 33005 ft | 498 kts | 139° |
| 2026-04-28 23:59 | -16.21483 | 122.43477 | 33007 ft | 498 kts | 139° |
| 2026-04-29 00:00 | -16.26423 | 122.48520 | 33000 ft | 498 kts | 139° |
| 2026-04-29 00:00 | -16.31334 | 122.53536 | 33010 ft | 498 kts | 139° |
| 2026-04-29 00:01 | -16.36273 | 122.58585 | 33013 ft | 498 kts | 139° |
| 2026-04-29 00:01 | -16.41219 | 122.63644 | 33005 ft | 498 kts | 139° |
| 2026-04-29 00:02 | -16.46157 | 122.68699 | 33008 ft | 498 kts | 139° |
| 2026-04-29 00:02 | -16.51103 | 122.73767 | 33010 ft | 498 kts | 139° |
| 2026-04-29 00:03 | -16.56033 | 122.78821 | 33010 ft | 498 kts | 139° |
| 2026-04-29 00:03 | -16.60971 | 122.83888 | 33016 ft | 498 kts | 139° |
| 2026-04-29 00:04 | -16.65916 | 122.88966 | 33015 ft | 498 kts | 139° |
| 2026-04-29 00:04 | -16.70856 | 122.94043 | 33014 ft | 499 kts | 139° |
| 2026-04-29 00:05 | -16.75796 | 122.99124 | 33017 ft | 499 kts | 138° |
| 2026-04-29 00:05 | -16.80737 | 123.04209 | 33014 ft | 499 kts | 138° |
| 2026-04-29 00:06 | -16.85684 | 123.09304 | 33021 ft | 499 kts | 138° |
| 2026-04-29 00:06 | -16.90621 | 123.14394 | 33018 ft | 499 kts | 138° |
| 2026-04-29 00:07 | -16.95570 | 123.19500 | 33021 ft | 499 kts | 138° |
| 2026-04-29 00:07 | -17.00504 | 123.24594 | 33019 ft | 500 kts | 138° |
| 2026-04-29 00:08 | -17.05452 | 123.29707 | 33023 ft | 500 kts | 138° |
| 2026-04-29 00:08 | -17.10360 | 123.34782 | 33024 ft | 500 kts | 138° |
| 2026-04-29 00:09 | -17.15299 | 123.39893 | 33021 ft | 500 kts | 138° |
| 2026-04-29 00:09 | -17.20236 | 123.45007 | 33029 ft | 500 kts | 138° |
| 2026-04-29 00:10 | -17.25172 | 123.50123 | 33025 ft | 500 kts | 138° |
| 2026-04-29 00:10 | -17.30114 | 123.55250 | 33028 ft | 500 kts | 139° |
| 2026-04-29 00:11 | -17.35054 | 123.60379 | 33028 ft | 500 kts | 138° |
| 2026-04-29 00:12 | -17.42457 | 123.68073 | 33016 ft | 500 kts | 138° |
| 2026-04-29 00:12 | -17.47392 | 123.73207 | 33002 ft | 500 kts | 138° |
| 2026-04-29 00:13 | -17.52311 | 123.78330 | 32995 ft | 500 kts | 138° |
| 2026-04-29 00:13 | -17.57247 | 123.83474 | 32997 ft | 500 kts | 139° |
| 2026-04-29 00:14 | -17.62273 | 123.88488 | 32985 ft | 498 kts | 142° |
| 2026-04-29 00:14 | -17.67478 | 123.93278 | 33000 ft | 497 kts | 143° |
| 2026-04-29 00:15 | -17.72687 | 123.98033 | 33017 ft | 497 kts | 142° |
| 2026-04-29 00:15 | -17.77881 | 124.02828 | 33026 ft | 497 kts | 142° |
| 2026-04-29 00:16 | -17.83057 | 124.07644 | 33039 ft | 497 kts | 142° |
| 2026-04-29 00:16 | -17.88224 | 124.12463 | 33045 ft | 497 kts | 142° |
| 2026-04-29 00:17 | -17.93401 | 124.17295 | 33048 ft | 497 kts | 142° |
| 2026-04-29 00:17 | -17.98522 | 124.22075 | 33048 ft | 497 kts | 142° |
| 2026-04-29 00:18 | -18.03689 | 124.26902 | 33050 ft | 497 kts | 142° |
| 2026-04-29 00:18 | -18.08857 | 124.31733 | 33046 ft | 497 kts | 142° |
| 2026-04-29 00:19 | -18.14026 | 124.36570 | 33046 ft | 497 kts | 142° |
| 2026-04-29 00:19 | -18.19176 | 124.41393 | 33059 ft | 497 kts | 142° |
| 2026-04-29 00:20 | -18.24337 | 124.46229 | 33055 ft | 497 kts | 142° |
| 2026-04-29 00:20 | -18.29513 | 124.51085 | 33058 ft | 497 kts | 142° |
| 2026-04-29 00:21 | -18.34635 | 124.55893 | 33057 ft | 497 kts | 142° |
| 2026-04-29 00:21 | -18.39797 | 124.60743 | 33056 ft | 497 kts | 142° |
| 2026-04-29 00:22 | -18.44952 | 124.65591 | 33058 ft | 497 kts | 142° |
| 2026-04-29 00:22 | -18.50107 | 124.70443 | 33058 ft | 496 kts | 142° |
| 2026-04-29 00:23 | -18.55247 | 124.75284 | 33058 ft | 496 kts | 142° |
| 2026-04-29 00:23 | -18.60395 | 124.80137 | 33064 ft | 496 kts | 142° |
| 2026-04-29 00:24 | -18.64659 | 124.84160 | 33063 ft | 495 kts | 142° |
| 2026-04-29 00:24 | -18.69799 | 124.89014 | 33065 ft | 495 kts | 142° |
| 2026-04-29 00:25 | -18.74929 | 124.93861 | 33069 ft | 495 kts | 142° |
| 2026-04-29 00:25 | -18.80057 | 124.98711 | 33065 ft | 495 kts | 142° |
| 2026-04-29 00:26 | -18.85191 | 125.03572 | 33067 ft | 495 kts | 142° |
| 2026-04-29 00:26 | -18.90322 | 125.08432 | 33074 ft | 495 kts | 142° |
| 2026-04-29 00:27 | -18.95435 | 125.13281 | 33075 ft | 495 kts | 142° |
| 2026-04-29 00:27 | -19.00559 | 125.18144 | 33080 ft | 494 kts | 142° |
| 2026-04-29 00:28 | -19.05664 | 125.22993 | 33077 ft | 494 kts | 142° |
| 2026-04-29 00:28 | -19.10776 | 125.27853 | 33077 ft | 494 kts | 142° |
| 2026-04-29 00:29 | -19.15844 | 125.32675 | 33082 ft | 493 kts | 142° |
| 2026-04-29 00:29 | -19.20946 | 125.37534 | 33084 ft | 493 kts | 142° |
| 2026-04-29 00:30 | -19.26040 | 125.42389 | 33084 ft | 493 kts | 142° |
| 2026-04-29 00:30 | -19.31139 | 125.47254 | 33085 ft | 493 kts | 142° |
| 2026-04-29 00:31 | -19.36238 | 125.52122 | 33091 ft | 493 kts | 142° |
| 2026-04-29 00:31 | -19.41336 | 125.56995 | 33092 ft | 493 kts | 142° |
| 2026-04-29 00:32 | -19.46425 | 125.61863 | 33096 ft | 493 kts | 142° |
| 2026-04-29 00:32 | -19.51512 | 125.66732 | 33091 ft | 493 kts | 142° |
| 2026-04-29 00:33 | -19.56602 | 125.71610 | 33096 ft | 493 kts | 142° |
| 2026-04-29 00:33 | -19.61655 | 125.76456 | 33101 ft | 493 kts | 142° |
| 2026-04-29 00:34 | -19.66738 | 125.81336 | 33102 ft | 493 kts | 142° |
| 2026-04-29 00:34 | -19.71813 | 125.86211 | 33101 ft | 493 kts | 142° |
| 2026-04-29 00:35 | -19.76896 | 125.91100 | 33108 ft | 492 kts | 142° |
| 2026-04-29 00:35 | -19.81969 | 125.95983 | 33099 ft | 492 kts | 142° |
| 2026-04-29 00:36 | -19.87043 | 126.00871 | 33108 ft | 492 kts | 142° |
| 2026-04-29 00:36 | -19.92108 | 126.05756 | 33110 ft | 492 kts | 142° |
| 2026-04-29 00:37 | -19.97179 | 126.10650 | 33105 ft | 492 kts | 142° |
| 2026-04-29 00:37 | -20.02236 | 126.15537 | 33107 ft | 491 kts | 142° |
| 2026-04-29 00:38 | -20.07287 | 126.20421 | 33120 ft | 491 kts | 142° |
| 2026-04-29 00:38 | -20.12416 | 126.25219 | 33104 ft | 489 kts | 144° |